Terri L. Brusco — WDC3034 — position and weather

sailwx.info

Track history (hours):
 
Tides and Currents Weather Stations Pressure Air Temp Water Temp Dewpoint Dewpoint Depression Visibility Wind Speed Wind Dir Waves Ship Positions

Terri L. Brusco

Owner: Brusco Tug & Barge, Inc., Longview, WA. More information available from US FCC via Universal Licensing System and Coast Guard Vessel Documentation Center.

Last reported at 2016-Dec-09 19:16 UTC. Time now 2016-Dec-10 12:49 UTC.
Position N 35°48' W 121°48'.

Length 21 m; draft 4 m.

Type: Tow > 200 m length. MMSI: 367001830.

Date/timePositionNaut miles runAvg speedWind from/ knotsBaromVisibWave heightAir tempDewpointWater temp
2016-Dec-09 19:16N 35°48' W 121°48'5 6.8
2016-Dec-09 18:32N 35°53' W 121°51'6 6.6
2016-Dec-09 17:34N 35°58' W 121°55'7 6.7
2016-Dec-09 16:33N 36°04' W 121°59'105 6.1
2016-Dec-08 23:23N 37°44' W 122°40'4 4.7
2016-Dec-08 22:33N 37°46' W 122°36'6 6.1
2016-Dec-08 21:33N 37°49' W 122°30'7 6.6
2016-Dec-08 20:34N 37°48' W 122°21'5 4.9
2016-Dec-08 19:33N 37°47' W 122°15'1 0.8
2016-Dec-08 18:31N 37°46' W 122°14'0 0.0
2016-Dec-08 17:33N 37°46' W 122°14'0 0.0
2016-Dec-08 16:33N 37°46' W 122°14'0 0.0
2016-Dec-08 15:34N 37°46' W 122°14'2 2.5
2016-Dec-08 14:33N 37°47' W 122°17'0 0.0
2016-Dec-08 13:33N 37°47' W 122°17'0 0.0
2016-Dec-08 12:33N 37°47' W 122°17'0 0.0
2016-Dec-08 11:33N 37°47' W 122°17'0 0.0
2016-Dec-08 10:33N 37°47' W 122°17'0 0.0
2016-Dec-08 09:33N 37°47' W 122°17'0 0.0
2016-Dec-08 08:33N 37°47' W 122°17'0 0.0
2016-Dec-08 07:34N 37°47' W 122°17'0 0.0
2016-Dec-08 06:33N 37°47' W 122°17'0 0.0
2016-Dec-08 05:34N 37°47' W 122°17'0 0.0
2016-Dec-08 04:33N 37°47' W 122°17'0 0.0
2016-Dec-08 03:33N 37°47' W 122°17'0 0.0
2016-Dec-08 02:33N 37°47' W 122°17'0 0.0
2016-Dec-08 01:33N 37°47' W 122°17'0 0.0
2016-Dec-08 00:33N 37°47' W 122°17'0 0.0
2016-Dec-07 23:33N 37°47' W 122°17'0 0.0
2016-Dec-07 22:34N 37°47' W 122°17'0 0.0
2016-Dec-07 21:34N 37°47' W 122°17'0 0.0
2016-Dec-07 20:33N 37°47' W 122°17'0 0.0
2016-Dec-07 19:34N 37°47' W 122°17'0 0.0
2016-Dec-07 18:34N 37°47' W 122°17'0 0.0
2016-Dec-07 17:33N 37°47' W 122°17'0 0.0
2016-Dec-07 16:33N 37°47' W 122°17'0 0.0
2016-Dec-07 15:34N 37°47' W 122°17'0 0.0
2016-Dec-07 14:33N 37°47' W 122°17'0 0.0
2016-Dec-07 13:34N 37°47' W 122°17'0 0.0
2016-Dec-07 12:34N 37°47' W 122°17'0 0.0
2016-Dec-07 11:33N 37°47' W 122°17'0 0.0
2016-Dec-07 10:34N 37°47' W 122°17'0 0.0
2016-Dec-07 09:34N 37°47' W 122°17'0 0.0
2016-Dec-07 08:33N 37°47' W 122°17'0 0.0
2016-Dec-07 07:33N 37°47' W 122°17'0 0.0
2016-Dec-07 06:34N 37°47' W 122°17'0 0.0
2016-Dec-07 05:33N 37°47' W 122°17'0 0.0
2016-Dec-07 04:33N 37°47' W 122°17'0 0.0
2016-Dec-07 03:33N 37°47' W 122°17'0 0.0
2016-Dec-07 02:33N 37°47' W 122°17'0 0.0
2016-Dec-07 01:34N 37°47' W 122°17'0 0.0
2016-Dec-07 00:33N 37°47' W 122°17'0 0.0
2016-Dec-06 23:33N 37°47' W 122°17'0 0.0
2016-Dec-06 22:33N 37°47' W 122°17'0 0.0
2016-Dec-06 21:33N 37°47' W 122°17'0 0.0
2016-Dec-06 20:33N 37°47' W 122°17'0 0.0
2016-Dec-06 18:33N 37°47' W 122°17'0 0.0
2016-Dec-06 17:33N 37°47' W 122°17'0 0.0
2016-Dec-06 16:33N 37°47' W 122°17'0 0.0
2016-Dec-06 15:33N 37°47' W 122°17'0 0.0
2016-Dec-06 14:33N 37°47' W 122°17'0 0.0
2016-Dec-06 13:33N 37°47' W 122°17'0 0.0
2016-Dec-06 12:33N 37°47' W 122°17'0 0.0
2016-Dec-06 11:33N 37°47' W 122°17'0 0.0
2016-Dec-06 10:33N 37°47' W 122°17'0 0.0
2016-Dec-06 09:34N 37°47' W 122°17'0 0.0
2016-Dec-06 08:34N 37°47' W 122°17'0 0.0
2016-Dec-06 07:34N 37°47' W 122°17'0 0.0
2016-Dec-06 06:33N 37°47' W 122°17'0 0.0
2016-Dec-06 05:34N 37°47' W 122°17'0 0.0
2016-Dec-06 04:33N 37°47' W 122°17'0 0.0
2016-Dec-06 03:34N 37°47' W 122°17'0 0.0
2016-Dec-06 02:33N 37°47' W 122°17'0 0.0
2016-Dec-06 01:33N 37°47' W 122°17'0 0.0
2016-Dec-06 00:34N 37°47' W 122°17'0 0.0
2016-Dec-05 23:33N 37°47' W 122°17'0 0.0
2016-Dec-05 22:33N 37°47' W 122°17'1 0.9
2016-Dec-05 21:33N 37°48' W 122°18'2 1.7
2016-Dec-05 20:33N 37°49' W 122°19'0 0.0
2016-Dec-05 19:33N 37°49' W 122°19'0 0.0
2016-Dec-05 18:33N 37°49' W 122°19'0 0.0
2016-Dec-05 17:33N 37°49' W 122°19'0 0.0
2016-Dec-05 16:33N 37°49' W 122°19'0 0.0
2016-Dec-05 15:33N 37°49' W 122°19'0 0.0
2016-Dec-05 14:33N 37°49' W 122°19'0 0.0
2016-Dec-05 13:33N 37°49' W 122°19'0 0.0
2016-Dec-05 12:33N 37°49' W 122°19'0 0.0
2016-Dec-05 11:33N 37°49' W 122°19'0 0.0
2016-Dec-05 10:33N 37°49' W 122°19'0 0.0
2016-Dec-05 09:33N 37°49' W 122°19'0 0.0
2016-Dec-05 08:33N 37°49' W 122°19'0 0.0
2016-Dec-05 07:33N 37°49' W 122°19'0 0.0
2016-Dec-05 06:33N 37°49' W 122°19'0 0.1
2016-Dec-05 05:33N 37°49' W 122°18'0 0.0
2016-Dec-05 04:34N 37°49' W 122°18'4 3.7
2016-Dec-05 03:33N 37°49' W 122°23'2 2.5
2016-Dec-05 02:33N 37°49' W 122°26'0 0.2
2016-Dec-05 01:33N 37°48' W 122°26'0 0.0
2016-Dec-05 00:34N 37°48' W 122°26'0 0.2
2016-Dec-04 23:33N 37°49' W 122°26'0 0.0
2016-Dec-04 22:33N 37°49' W 122°26'0 0.3
2016-Dec-04 21:33N 37°49' W 122°26'0 0.2
2016-Dec-04 20:33N 37°49' W 122°26'0 0.0
2016-Dec-04 19:33N 37°49' W 122°26'4 4.2
2016-Dec-04 18:33N 37°50' W 122°21'1 1.1
2016-Dec-04 17:33N 37°49' W 122°21'5 4.5
2016-Dec-04 16:33N 37°47' W 122°16'3 3.0
2016-Dec-04 15:33N 37°49' W 122°19'0 0.0
2016-Dec-04 14:33N 37°49' W 122°19'0 0.0
2016-Dec-04 13:33N 37°49' W 122°19'0 0.0
2016-Dec-04 12:33N 37°49' W 122°19'0 0.0
2016-Dec-04 11:33N 37°49' W 122°19'0 0.0
2016-Dec-04 10:33N 37°49' W 122°19'0 0.0
2016-Dec-04 09:33N 37°49' W 122°19'0 0.0
2016-Dec-04 08:33N 37°49' W 122°19'0 0.0
2016-Dec-04 07:33N 37°49' W 122°19'0 0.3
2016-Dec-04 06:33N 37°49' W 122°19'0 0.0
2016-Dec-04 05:33N 37°49' W 122°19'3 2.6
2016-Dec-04 04:33N 37°48' W 122°22'4 3.6
2016-Dec-04 03:33N 37°49' W 122°27'0 0.3
2016-Dec-04 02:33N 37°48' W 122°26'0 0.0
2016-Dec-04 01:34N 37°48' W 122°26'6 5.9
2016-Dec-04 00:33N 37°49' W 122°19'0 0.0
2016-Dec-03 23:33N 37°49' W 122°19'0 0.0
2016-Dec-03 22:33N 37°49' W 122°19'6 5.9
2016-Dec-03 21:33N 37°48' W 122°26'0 0.0
2016-Dec-03 20:33N 37°48' W 122°26'2 1.7
2016-Dec-03 19:33N 37°49' W 122°24'4 4.5
2016-Dec-03 18:33N 37°49' W 122°19'0 0.0
2016-Dec-03 17:33N 37°49' W 122°19'0 0.0
2016-Dec-03 16:33N 37°49' W 122°19'0 0.0
2016-Dec-03 15:33N 37°49' W 122°19'5 5.5
2016-Dec-03 14:33N 37°49' W 122°25'1 0.8
2016-Dec-03 13:33N 37°49' W 122°25'3 2.6
2016-Dec-03 12:33N 37°50' W 122°21'0 0.1
2016-Dec-03 11:33N 37°50' W 122°21'0 0.1
2016-Dec-03 10:33N 37°50' W 122°21'0 0.0
2016-Dec-03 09:33N 37°50' W 122°21'0 0.0
2016-Dec-03 08:33N 37°50' W 122°21'0 0.0
2016-Dec-03 07:33N 37°50' W 122°21'0 0.0
2016-Dec-03 06:33N 37°50' W 122°21'0 0.0
2016-Dec-03 05:33N 37°50' W 122°21'0 0.1
2016-Dec-03 04:33N 37°50' W 122°21'2 1.8
2016-Dec-03 03:33N 37°50' W 122°24'4 4.5
2016-Dec-03 02:33N 37°49' W 122°29'5 5.2
2016-Dec-03 01:33N 37°45' W 122°34'2 1.6
2016-Dec-03 00:33N 37°47' W 122°33'6 5.9
2016-Dec-02 23:33N 37°49' W 122°26'6 6.1
2016-Dec-02 22:33N 37°49' W 122°19'4 4.4
2016-Dec-02 21:33N 37°46' W 122°14'0 0.0
2016-Dec-02 20:34N 37°46' W 122°14'0 0.0
2016-Dec-02 19:33N 37°46' W 122°14'0 0.0
2016-Dec-02 15:33N 37°46' W 122°14'0 0.0
2016-Dec-02 14:33N 37°46' W 122°14'0 0.0
2016-Dec-02 13:33N 37°46' W 122°14'0 0.0
2016-Dec-02 12:34N 37°46' W 122°14'0 0.0
2016-Dec-02 11:33N 37°46' W 122°14'0 0.0
2016-Dec-02 10:33N 37°46' W 122°14'0 0.0
2016-Dec-02 09:33N 37°46' W 122°14'0 0.0
2016-Dec-02 08:33N 37°46' W 122°14'0 0.0
2016-Dec-02 07:34N 37°46' W 122°14'0 0.0
2016-Dec-02 06:34N 37°46' W 122°14'0 0.0
2016-Dec-02 05:34N 37°46' W 122°14'0 0.0
2016-Dec-02 04:33N 37°46' W 122°14'0 0.0
2016-Dec-02 03:33N 37°46' W 122°14'0 0.0
2016-Dec-02 02:33N 37°46' W 122°14'0 0.0
2016-Dec-02 01:33N 37°46' W 122°14'0 0.0
2016-Dec-02 00:33N 37°46' W 122°14'0 0.0
2016-Dec-01 23:33N 37°46' W 122°14'0 0.0
2016-Dec-01 22:33N 37°46' W 122°14'0 0.0
2016-Dec-01 21:33N 37°46' W 122°14'0 0.0
2016-Dec-01 20:33N 37°46' W 122°14'0 0.0
2016-Dec-01 19:33N 37°46' W 122°14'0 0.0
2016-Dec-01 18:33N 37°46' W 122°14'0 0.0
2016-Dec-01 17:34N 37°46' W 122°14'0 0.0
2016-Dec-01 16:33N 37°46' W 122°14'0 0.0
2016-Dec-01 15:33N 37°46' W 122°14'0 0.0
2016-Dec-01 14:33N 37°46' W 122°14'0 0.0
2016-Dec-01 13:34N 37°46' W 122°14'0 0.0
2016-Dec-01 12:33N 37°46' W 122°14'0 0.0
2016-Dec-01 11:33N 37°46' W 122°14'0 0.0
2016-Dec-01 10:34N 37°46' W 122°14'0 0.0
2016-Dec-01 09:33N 37°46' W 122°14'0 0.0
2016-Dec-01 08:33N 37°46' W 122°14'0 0.0
2016-Dec-01 07:34N 37°46' W 122°14'0 0.0
2016-Dec-01 06:34N 37°46' W 122°14'0 0.0
2016-Dec-01 05:33N 37°46' W 122°14'0 0.0
2016-Dec-01 04:33N 37°46' W 122°14'0 0.0
2016-Dec-01 03:33N 37°46' W 122°14'0 0.0
2016-Dec-01 02:33N 37°46' W 122°14'0 0.0
2016-Dec-01 01:33N 37°46' W 122°14'0 0.0
2016-Dec-01 00:33N 37°46' W 122°14'0 0.0
2016-Nov-30 23:33N 37°46' W 122°14'0 0.2
2016-Nov-30 22:34N 37°47' W 122°15'4 4.3
2016-Nov-30 21:33N 37°49' W 122°19'2 1.6
2016-Nov-30 20:33N 37°48' W 122°21'7 6.8
2016-Nov-30 19:33N 37°54' W 122°25'5 4.8
2016-Nov-30 18:33N 37°59' W 122°26'9 6.7
2016-Nov-30 17:13N 38°03' W 122°17'6 8.7
2016-Nov-30 16:31N 38°02' W 122°09'6 0.8
2016-Nov-30 09:33N 38°04' W 122°16'10 8.4
2016-Nov-30 08:23N 37°58' W 122°26'7 8.3
2016-Nov-30 07:33N 37°51' W 122°24'3 2.8
2016-Nov-30 06:33N 37°49' W 122°24'0 0.1
2016-Nov-30 05:33N 37°49' W 122°24'0 0.0
2016-Nov-30 04:33N 37°49' W 122°24'0 0.0
2016-Nov-30 03:33N 37°49' W 122°24'0 0.0
2016-Nov-30 02:33N 37°49' W 122°24'0 0.0
2016-Nov-30 01:33N 37°49' W 122°24'0 0.1
2016-Nov-30 00:33N 37°49' W 122°24'3 2.7
2016-Nov-29 23:33N 37°51' W 122°25'1010.0
2016-Nov-29 22:30N 38°02' W 122°22'  
Track history (hours):
 
Tides and Currents Weather Stations Pressure Air Temp Water Temp Dewpoint Dewpoint Depression Visibility Wind Speed Wind Dir Waves Ship Positions

Terri L. Brusco

Owner: Brusco Tug & Barge, Inc., Longview, WA. More information available from US FCC via Universal Licensing System and Coast Guard Vessel Documentation Center.

Last reported at 2016-Dec-09 19:16 UTC. Time now 2016-Dec-10 12:49 UTC.
Position N 35°48' W 121°48'.

Length 21 m; draft 4 m.

Type: Tow > 200 m length. MMSI: 367001830.

Date/timePositionNaut miles runAvg speedWind from/ knotsBaromVisibWave heightAir tempDewpointWater temp
2016-Dec-09 19:16N 35°48' W 121°48'5 6.8
2016-Dec-09 18:32N 35°53' W 121°51'6 6.6
2016-Dec-09 17:34N 35°58' W 121°55'7 6.7
2016-Dec-09 16:33N 36°04' W 121°59'105 6.1
2016-Dec-08 23:23N 37°44' W 122°40'4 4.7
2016-Dec-08 22:33N 37°46' W 122°36'6 6.1
2016-Dec-08 21:33N 37°49' W 122°30'7 6.6
2016-Dec-08 20:34N 37°48' W 122°21'5 4.9
2016-Dec-08 19:33N 37°47' W 122°15'1 0.8
2016-Dec-08 18:31N 37°46' W 122°14'0 0.0
2016-Dec-08 17:33N 37°46' W 122°14'0 0.0
2016-Dec-08 16:33N 37°46' W 122°14'0 0.0
2016-Dec-08 15:34N 37°46' W 122°14'2 2.5
2016-Dec-08 14:33N 37°47' W 122°17'0 0.0
2016-Dec-08 13:33N 37°47' W 122°17'0 0.0
2016-Dec-08 12:33N 37°47' W 122°17'0 0.0
2016-Dec-08 11:33N 37°47' W 122°17'0 0.0
2016-Dec-08 10:33N 37°47' W 122°17'0 0.0
2016-Dec-08 09:33N 37°47' W 122°17'0 0.0
2016-Dec-08 08:33N 37°47' W 122°17'0 0.0
2016-Dec-08 07:34N 37°47' W 122°17'0 0.0
2016-Dec-08 06:33N 37°47' W 122°17'0 0.0
2016-Dec-08 05:34N 37°47' W 122°17'0 0.0
2016-Dec-08 04:33N 37°47' W 122°17'0 0.0
2016-Dec-08 03:33N 37°47' W 122°17'0 0.0
2016-Dec-08 02:33N 37°47' W 122°17'0 0.0
2016-Dec-08 01:33N 37°47' W 122°17'0 0.0
2016-Dec-08 00:33N 37°47' W 122°17'0 0.0
2016-Dec-07 23:33N 37°47' W 122°17'0 0.0
2016-Dec-07 22:34N 37°47' W 122°17'0 0.0
2016-Dec-07 21:34N 37°47' W 122°17'0 0.0
2016-Dec-07 20:33N 37°47' W 122°17'0 0.0
2016-Dec-07 19:34N 37°47' W 122°17'0 0.0
2016-Dec-07 18:34N 37°47' W 122°17'0 0.0
2016-Dec-07 17:33N 37°47' W 122°17'0 0.0
2016-Dec-07 16:33N 37°47' W 122°17'0 0.0
2016-Dec-07 15:34N 37°47' W 122°17'0 0.0
2016-Dec-07 14:33N 37°47' W 122°17'0 0.0
2016-Dec-07 13:34N 37°47' W 122°17'0 0.0
2016-Dec-07 12:34N 37°47' W 122°17'0 0.0
2016-Dec-07 11:33N 37°47' W 122°17'0 0.0
2016-Dec-07 10:34N 37°47' W 122°17'0 0.0
2016-Dec-07 09:34N 37°47' W 122°17'0 0.0
2016-Dec-07 08:33N 37°47' W 122°17'0 0.0
2016-Dec-07 07:33N 37°47' W 122°17'0 0.0
2016-Dec-07 06:34N 37°47' W 122°17'0 0.0
2016-Dec-07 05:33N 37°47' W 122°17'0 0.0
2016-Dec-07 04:33N 37°47' W 122°17'0 0.0
2016-Dec-07 03:33N 37°47' W 122°17'0 0.0
2016-Dec-07 02:33N 37°47' W 122°17'0 0.0
2016-Dec-07 01:34N 37°47' W 122°17'0 0.0
2016-Dec-07 00:33N 37°47' W 122°17'0 0.0
2016-Dec-06 23:33N 37°47' W 122°17'0 0.0
2016-Dec-06 22:33N 37°47' W 122°17'0 0.0
2016-Dec-06 21:33N 37°47' W 122°17'0 0.0
2016-Dec-06 20:33N 37°47' W 122°17'0 0.0
2016-Dec-06 18:33N 37°47' W 122°17'0 0.0
2016-Dec-06 17:33N 37°47' W 122°17'0 0.0
2016-Dec-06 16:33N 37°47' W 122°17'0 0.0
2016-Dec-06 15:33N 37°47' W 122°17'0 0.0
2016-Dec-06 14:33N 37°47' W 122°17'0 0.0
2016-Dec-06 13:33N 37°47' W 122°17'0 0.0
2016-Dec-06 12:33N 37°47' W 122°17'0 0.0
2016-Dec-06 11:33N 37°47' W 122°17'0 0.0
2016-Dec-06 10:33N 37°47' W 122°17'0 0.0
2016-Dec-06 09:34N 37°47' W 122°17'0 0.0
2016-Dec-06 08:34N 37°47' W 122°17'0 0.0
2016-Dec-06 07:34N 37°47' W 122°17'0 0.0
2016-Dec-06 06:33N 37°47' W 122°17'0 0.0
2016-Dec-06 05:34N 37°47' W 122°17'0 0.0
2016-Dec-06 04:33N 37°47' W 122°17'0 0.0
2016-Dec-06 03:34N 37°47' W 122°17'0 0.0
2016-Dec-06 02:33N 37°47' W 122°17'0 0.0
2016-Dec-06 01:33N 37°47' W 122°17'0 0.0
2016-Dec-06 00:34N 37°47' W 122°17'0 0.0
2016-Dec-05 23:33N 37°47' W 122°17'0 0.0
2016-Dec-05 22:33N 37°47' W 122°17'1 0.9
2016-Dec-05 21:33N 37°48' W 122°18'2 1.7
2016-Dec-05 20:33N 37°49' W 122°19'0 0.0
2016-Dec-05 19:33N 37°49' W 122°19'0 0.0
2016-Dec-05 18:33N 37°49' W 122°19'0 0.0
2016-Dec-05 17:33N 37°49' W 122°19'0 0.0
2016-Dec-05 16:33N 37°49' W 122°19'0 0.0
2016-Dec-05 15:33N 37°49' W 122°19'0 0.0
2016-Dec-05 14:33N 37°49' W 122°19'0 0.0
2016-Dec-05 13:33N 37°49' W 122°19'0 0.0
2016-Dec-05 12:33N 37°49' W 122°19'0 0.0
2016-Dec-05 11:33N 37°49' W 122°19'0 0.0
2016-Dec-05 10:33N 37°49' W 122°19'0 0.0
2016-Dec-05 09:33N 37°49' W 122°19'0 0.0
2016-Dec-05 08:33N 37°49' W 122°19'0 0.0
2016-Dec-05 07:33N 37°49' W 122°19'0 0.0
2016-Dec-05 06:33N 37°49' W 122°19'0 0.1
2016-Dec-05 05:33N 37°49' W 122°18'0 0.0
2016-Dec-05 04:34N 37°49' W 122°18'4 3.7
2016-Dec-05 03:33N 37°49' W 122°23'2 2.5
2016-Dec-05 02:33N 37°49' W 122°26'0 0.2
2016-Dec-05 01:33N 37°48' W 122°26'0 0.0
2016-Dec-05 00:34N 37°48' W 122°26'0 0.2
2016-Dec-04 23:33N 37°49' W 122°26'0 0.0
2016-Dec-04 22:33N 37°49' W 122°26'0 0.3
2016-Dec-04 21:33N 37°49' W 122°26'0 0.2
2016-Dec-04 20:33N 37°49' W 122°26'0 0.0
2016-Dec-04 19:33N 37°49' W 122°26'4 4.2
2016-Dec-04 18:33N 37°50' W 122°21'1 1.1
2016-Dec-04 17:33N 37°49' W 122°21'5 4.5
2016-Dec-04 16:33N 37°47' W 122°16'3 3.0
2016-Dec-04 15:33N 37°49' W 122°19'0 0.0
2016-Dec-04 14:33N 37°49' W 122°19'0 0.0
2016-Dec-04 13:33N 37°49' W 122°19'0 0.0
2016-Dec-04 12:33N 37°49' W 122°19'0 0.0
2016-Dec-04 11:33N 37°49' W 122°19'0 0.0
2016-Dec-04 10:33N 37°49' W 122°19'0 0.0
2016-Dec-04 09:33N 37°49' W 122°19'0 0.0
2016-Dec-04 08:33N 37°49' W 122°19'0 0.0
2016-Dec-04 07:33N 37°49' W 122°19'0 0.3
2016-Dec-04 06:33N 37°49' W 122°19'0 0.0
2016-Dec-04 05:33N 37°49' W 122°19'3 2.6
2016-Dec-04 04:33N 37°48' W 122°22'4 3.6
2016-Dec-04 03:33N 37°49' W 122°27'0 0.3
2016-Dec-04 02:33N 37°48' W 122°26'0 0.0
2016-Dec-04 01:34N 37°48' W 122°26'6 5.9
2016-Dec-04 00:33N 37°49' W 122°19'0 0.0
2016-Dec-03 23:33N 37°49' W 122°19'0 0.0
2016-Dec-03 22:33N 37°49' W 122°19'6 5.9
2016-Dec-03 21:33N 37°48' W 122°26'0 0.0
2016-Dec-03 20:33N 37°48' W 122°26'2 1.7
2016-Dec-03 19:33N 37°49' W 122°24'4 4.5
2016-Dec-03 18:33N 37°49' W 122°19'0 0.0
2016-Dec-03 17:33N 37°49' W 122°19'0 0.0
2016-Dec-03 16:33N 37°49' W 122°19'0 0.0
2016-Dec-03 15:33N 37°49' W 122°19'5 5.5
2016-Dec-03 14:33N 37°49' W 122°25'1 0.8
2016-Dec-03 13:33N 37°49' W 122°25'3 2.6
2016-Dec-03 12:33N 37°50' W 122°21'0 0.1
2016-Dec-03 11:33N 37°50' W 122°21'0 0.1
2016-Dec-03 10:33N 37°50' W 122°21'0 0.0
2016-Dec-03 09:33N 37°50' W 122°21'0 0.0
2016-Dec-03 08:33N 37°50' W 122°21'0 0.0
2016-Dec-03 07:33N 37°50' W 122°21'0 0.0
2016-Dec-03 06:33N 37°50' W 122°21'0 0.0
2016-Dec-03 05:33N 37°50' W 122°21'0 0.1
2016-Dec-03 04:33N 37°50' W 122°21'2 1.8
2016-Dec-03 03:33N 37°50' W 122°24'4 4.5
2016-Dec-03 02:33N 37°49' W 122°29'5 5.2
2016-Dec-03 01:33N 37°45' W 122°34'2 1.6
2016-Dec-03 00:33N 37°47' W 122°33'6 5.9
2016-Dec-02 23:33N 37°49' W 122°26'6 6.1
2016-Dec-02 22:33N 37°49' W 122°19'4 4.4
2016-Dec-02 21:33N 37°46' W 122°14'0 0.0
2016-Dec-02 20:34N 37°46' W 122°14'0 0.0
2016-Dec-02 19:33N 37°46' W 122°14'0 0.0
2016-Dec-02 15:33N 37°46' W 122°14'0 0.0
2016-Dec-02 14:33N 37°46' W 122°14'0 0.0
2016-Dec-02 13:33N 37°46' W 122°14'0 0.0
2016-Dec-02 12:34N 37°46' W 122°14'0 0.0
2016-Dec-02 11:33N 37°46' W 122°14'0 0.0
2016-Dec-02 10:33N 37°46' W 122°14'0 0.0
2016-Dec-02 09:33N 37°46' W 122°14'0 0.0
2016-Dec-02 08:33N 37°46' W 122°14'0 0.0
2016-Dec-02 07:34N 37°46' W 122°14'0 0.0
2016-Dec-02 06:34N 37°46' W 122°14'0 0.0
2016-Dec-02 05:34N 37°46' W 122°14'0 0.0
2016-Dec-02 04:33N 37°46' W 122°14'0 0.0
2016-Dec-02 03:33N 37°46' W 122°14'0 0.0
2016-Dec-02 02:33N 37°46' W 122°14'0 0.0
2016-Dec-02 01:33N 37°46' W 122°14'0 0.0
2016-Dec-02 00:33N 37°46' W 122°14'0 0.0
2016-Dec-01 23:33N 37°46' W 122°14'0 0.0
2016-Dec-01 22:33N 37°46' W 122°14'0 0.0
2016-Dec-01 21:33N 37°46' W 122°14'0 0.0
2016-Dec-01 20:33N 37°46' W 122°14'0 0.0
2016-Dec-01 19:33N 37°46' W 122°14'0 0.0
2016-Dec-01 18:33N 37°46' W 122°14'0 0.0
2016-Dec-01 17:34N 37°46' W 122°14'0 0.0
2016-Dec-01 16:33N 37°46' W 122°14'0 0.0
2016-Dec-01 15:33N 37°46' W 122°14'0 0.0
2016-Dec-01 14:33N 37°46' W 122°14'0 0.0
2016-Dec-01 13:34N 37°46' W 122°14'0 0.0
2016-Dec-01 12:33N 37°46' W 122°14'0 0.0
2016-Dec-01 11:33N 37°46' W 122°14'0 0.0
2016-Dec-01 10:34N 37°46' W 122°14'0 0.0
2016-Dec-01 09:33N 37°46' W 122°14'0 0.0
2016-Dec-01 08:33N 37°46' W 122°14'0 0.0
2016-Dec-01 07:34N 37°46' W 122°14'0 0.0
2016-Dec-01 06:34N 37°46' W 122°14'0 0.0
2016-Dec-01 05:33N 37°46' W 122°14'0 0.0
2016-Dec-01 04:33N 37°46' W 122°14'0 0.0
2016-Dec-01 03:33N 37°46' W 122°14'0 0.0
2016-Dec-01 02:33N 37°46' W 122°14'0 0.0
2016-Dec-01 01:33N 37°46' W 122°14'0 0.0
2016-Dec-01 00:33N 37°46' W 122°14'0 0.0
2016-Nov-30 23:33N 37°46' W 122°14'0 0.2
2016-Nov-30 22:34N 37°47' W 122°15'4 4.3
2016-Nov-30 21:33N 37°49' W 122°19'2 1.6
2016-Nov-30 20:33N 37°48' W 122°21'7 6.8
2016-Nov-30 19:33N 37°54' W 122°25'5 4.8
2016-Nov-30 18:33N 37°59' W 122°26'9 6.7
2016-Nov-30 17:13N 38°03' W 122°17'6 8.7
2016-Nov-30 16:31N 38°02' W 122°09'6 0.8
2016-Nov-30 09:33N 38°04' W 122°16'10 8.4
2016-Nov-30 08:23N 37°58' W 122°26'7 8.3
2016-Nov-30 07:33N 37°51' W 122°24'3 2.8
2016-Nov-30 06:33N 37°49' W 122°24'0 0.1
2016-Nov-30 05:33N 37°49' W 122°24'0 0.0
2016-Nov-30 04:33N 37°49' W 122°24'0 0.0
2016-Nov-30 03:33N 37°49' W 122°24'0 0.0
2016-Nov-30 02:33N 37°49' W 122°24'0 0.0
2016-Nov-30 01:33N 37°49' W 122°24'0 0.1
2016-Nov-30 00:33N 37°49' W 122°24'3 2.7
2016-Nov-29 23:33N 37°51' W 122°25'1010.0
2016-Nov-29 22:30N 38°02' W 122°22'  

Dump ship's entire track history